createdAt,value
2023-04-25T00:02:19.013Z,98089.88
2023-04-25T00:04:47.557Z,98094.87
2023-04-25T00:07:15.271Z,98087.94
2023-04-25T00:09:43.205Z,98080.37
2023-04-25T00:12:10.895Z,98081.00
2023-04-25T00:14:38.313Z,98070.13
2023-04-25T00:17:06.906Z,98072.09
2023-04-25T00:19:35.841Z,98072.50
2023-04-25T00:22:03.296Z,98067.66
2023-04-25T00:24:30.841Z,98076.28
2023-04-25T00:26:58.516Z,98077.00
2023-04-25T00:29:25.897Z,98062.31
2023-04-25T00:31:53.354Z,98063.88
2023-04-25T00:34:21.600Z,98066.94
2023-04-25T00:36:49.362Z,98068.44
2023-04-25T00:39:16.788Z,98056.22
2023-04-25T00:41:44.903Z,98056.19
2023-04-25T00:44:12.936Z,98053.12
2023-04-25T00:46:40.982Z,98059.84
2023-04-25T00:49:08.750Z,98059.81
2023-04-25T00:51:36.429Z,98058.81
2023-04-25T00:54:04.503Z,98057.97
2023-04-25T00:56:32.252Z,98049.75
2023-04-25T00:58:59.806Z,98048.94
2023-04-25T01:01:27.392Z,98041.34
2023-04-25T01:03:55.818Z,98042.81
2023-04-25T01:06:23.605Z,98043.84
2023-04-25T01:08:52.849Z,98044.16
2023-04-25T01:11:20.982Z,98033.69
2023-04-25T01:13:48.719Z,98038.84
2023-04-25T01:16:16.457Z,98033.91
2023-04-25T01:18:44.776Z,98038.69
2023-04-25T01:21:14.207Z,98041.91
2023-04-25T01:23:42.784Z,98040.00
2023-04-25T01:26:12.106Z,98035.59
2023-04-25T01:28:42.355Z,98038.53
2023-04-25T01:31:10.552Z,98042.81
2023-04-25T01:33:38.205Z,98030.97
2023-04-25T01:36:06.018Z,98032.41
2023-04-25T01:38:36.341Z,98024.56
2023-04-25T01:41:04.052Z,98028.41
2023-04-25T01:43:31.515Z,98032.56
2023-04-25T01:45:59.526Z,98036.66
2023-04-25T01:48:26.977Z,98033.84
2023-04-25T01:50:54.453Z,98025.56
2023-04-25T01:53:22.134Z,98031.62
2023-04-25T01:55:49.576Z,98030.78
2023-04-25T01:58:17.226Z,98031.56
2023-04-25T02:00:47.511Z,98028.31
2023-04-25T02:03:15.333Z,98041.13
2023-04-25T02:05:42.871Z,98032.06
2023-04-25T02:08:11.697Z,98047.25
2023-04-25T02:10:39.386Z,98033.59
2023-04-25T02:13:07.643Z,98043.06
2023-04-25T02:15:35.440Z,98045.72
2023-04-25T02:18:03.859Z,98043.69
2023-04-25T02:20:32.464Z,98030.09
2023-04-25T02:23:00.111Z,98034.72
2023-04-25T02:25:29.293Z,98036.19
2023-04-25T02:27:56.704Z,98028.41
2023-04-25T02:30:24.403Z,98040.25
2023-04-25T02:32:52.544Z,98031.91
2023-04-25T02:35:19.989Z,98030.88
2023-04-25T02:37:47.687Z,98030.19
2023-04-25T02:40:15.101Z,98020.75
2023-04-25T02:42:42.509Z,98031.03
2023-04-25T02:45:10.578Z,98026.84
2023-04-25T02:47:38.056Z,98036.97
2023-04-25T02:50:06.063Z,98028.19
2023-04-25T02:52:33.837Z,98024.44
2023-04-25T02:55:02.761Z,98030.31
2023-04-25T02:57:30.368Z,98027.63
2023-04-25T02:59:58.076Z,98027.63
2023-04-25T03:02:25.753Z,98031.22
2023-04-25T03:04:53.593Z,98029.53
2023-04-25T03:07:21.519Z,98024.12
2023-04-25T03:09:49.561Z,98021.81
2023-04-25T03:12:17.045Z,98022.47
2023-04-25T03:14:44.695Z,98024.34
2023-04-25T03:17:12.118Z,98019.25
2023-04-25T03:19:39.533Z,98015.03
2023-04-25T03:22:07.202Z,98030.56
2023-04-25T03:24:34.631Z,98019.56
2023-04-25T03:27:02.539Z,98040.94
2023-04-25T03:29:30.332Z,98027.34
2023-04-25T03:31:58.043Z,98027.13
2023-04-25T03:34:26.975Z,98039.31
2023-04-25T03:36:54.732Z,98032.16
2023-04-25T03:39:22.255Z,98038.47
2023-04-25T03:41:49.900Z,98027.13
2023-04-25T03:44:18.302Z,98034.06
2023-04-25T03:46:45.831Z,98032.50
2023-04-25T03:49:13.264Z,98030.56
2023-04-25T03:51:41.256Z,98043.44
2023-04-25T03:54:08.744Z,98022.16
2023-04-25T03:56:39.212Z,98039.34
2023-04-25T03:59:07.335Z,98034.19
2023-04-25T04:01:36.299Z,98046.41
2023-04-25T04:04:04.230Z,98041.91
2023-04-25T04:06:32.580Z,98040.22
2023-04-25T04:09:00.926Z,98046.47
2023-04-25T04:11:28.788Z,98045.72
2023-04-25T04:13:57.116Z,98050.06
2023-04-25T04:16:24.736Z,98062.91
2023-04-25T04:18:52.608Z,98055.91
2023-04-25T04:21:19.980Z,98049.91
2023-04-25T04:23:47.634Z,98046.56
2023-04-25T04:26:19.351Z,98064.59
2023-04-25T04:28:46.824Z,98055.00
2023-04-25T04:31:17.925Z,98060.28
2023-04-25T04:33:47.514Z,98061.94
2023-04-25T04:36:15.418Z,98062.94
2023-04-25T04:38:43.368Z,98069.75
2023-04-25T04:41:11.984Z,98056.09
2023-04-25T04:43:40.595Z,98059.56
2023-04-25T04:46:08.158Z,98065.59
2023-04-25T04:48:36.346Z,98066.50
2023-04-25T04:51:04.095Z,98072.56
2023-04-25T04:53:32.564Z,98069.06
2023-04-25T04:56:01.161Z,98066.47
2023-04-25T04:58:30.781Z,98064.75
2023-04-25T05:00:58.378Z,98073.47
2023-04-25T05:03:28.403Z,98074.31
2023-04-25T05:05:58.233Z,98071.66
2023-04-25T05:08:27.065Z,98075.19
2023-04-25T05:10:54.884Z,98071.75
2023-04-25T05:13:25.870Z,98077.81
2023-04-25T05:15:53.325Z,98077.81
2023-04-25T05:18:23.580Z,98074.34
2023-04-25T05:20:52.855Z,98070.84
2023-04-25T05:23:20.790Z,98071.75
2023-04-25T05:25:48.352Z,98083.84
2023-04-25T05:28:15.887Z,98076.94
2023-04-25T05:30:43.853Z,98080.34
2023-04-25T05:33:11.462Z,98079.50
2023-04-25T05:35:39.367Z,98074.34
2023-04-25T05:38:07.533Z,98084.66
2023-04-25T05:40:35.910Z,98085.56
2023-04-25T05:43:04.285Z,98084.69
2023-04-25T05:45:31.960Z,98078.66
2023-04-25T05:48:00.158Z,98071.72
2023-04-25T05:50:27.775Z,98082.09
2023-04-25T05:52:55.829Z,98080.37
2023-04-25T05:55:27.413Z,98087.22
2023-04-25T05:57:55.338Z,98082.88
2023-04-25T06:00:23.823Z,98083.59
2023-04-25T06:02:51.963Z,98077.63
2023-04-25T06:05:19.908Z,98079.41
2023-04-25T06:07:47.496Z,98087.22
2023-04-25T06:10:16.057Z,98084.59
2023-04-25T06:12:43.706Z,98080.25
2023-04-25T06:15:24.538Z,98083.66
2023-04-25T06:17:56.545Z,98081.13
2023-04-25T06:20:25.468Z,98084.59
2023-04-25T06:22:53.729Z,98079.28
2023-04-25T06:25:22.379Z,98083.62
2023-04-25T06:27:49.830Z,98089.75
2023-04-25T06:30:19.422Z,98081.13
2023-04-25T06:32:47.626Z,98085.38
2023-04-25T06:35:15.135Z,98087.91
2023-04-25T06:37:42.661Z,98081.03
2023-04-25T06:40:10.449Z,98086.16
2023-04-25T06:42:37.941Z,98077.94
2023-04-25T06:45:06.883Z,98086.72
2023-04-25T06:47:35.294Z,98086.63
2023-04-25T06:50:03.409Z,98087.56
2023-04-25T06:52:32.284Z,98088.59
2023-04-25T06:55:00.368Z,98081.66
2023-04-25T06:57:28.932Z,98084.88
2023-04-25T06:59:57.470Z,98083.06
2023-04-25T07:02:25.255Z,98095.16
2023-04-25T07:04:53.187Z,98084.66
2023-04-25T07:07:20.644Z,98091.12
2023-04-25T07:09:48.647Z,98096.16
2023-04-25T07:12:16.299Z,98089.91
2023-04-25T07:14:44.525Z,98085.34
2023-04-25T07:17:12.554Z,98079.34
2023-04-25T07:19:41.008Z,98088.84
2023-04-25T07:22:08.442Z,98095.09
2023-04-25T07:24:36.557Z,98084.81
2023-04-25T07:27:05.439Z,98094.06
2023-04-25T07:29:33.131Z,98095.19
2023-04-25T07:32:01.106Z,98087.31
2023-04-25T07:34:33.185Z,98095.78
2023-04-25T07:37:01.285Z,98088.34
2023-04-25T07:39:29.843Z,98103.00
2023-04-25T07:41:59.369Z,98093.19
2023-04-25T07:44:28.641Z,98094.41
2023-04-25T07:46:56.172Z,98099.41
2023-04-25T07:49:23.571Z,98099.47
2023-04-25T07:51:51.215Z,98102.72
2023-04-25T07:54:19.401Z,98097.63
2023-04-25T07:56:52.922Z,98106.94
2023-04-25T07:59:21.490Z,98103.50
2023-04-25T08:01:49.169Z,98100.97
2023-04-25T08:04:17.612Z,98093.97
2023-04-25T08:06:46.507Z,98102.94
2023-04-25T08:09:14.364Z,98098.03
2023-04-25T08:11:43.159Z,98094.78
2023-04-25T08:14:11.027Z,98101.25
2023-04-25T08:16:38.811Z,98099.81
2023-04-25T08:19:07.108Z,98094.66
2023-04-25T08:21:35.279Z,98094.75
2023-04-25T08:24:06.006Z,98106.41
2023-04-25T08:26:34.570Z,98100.84
2023-04-25T08:29:03.375Z,98112.69
2023-04-25T08:31:30.909Z,98102.78
2023-04-25T08:33:59.065Z,98103.44
2023-04-25T08:36:38.584Z,98108.41
2023-04-25T08:39:14.431Z,98109.56
2023-04-25T08:41:43.650Z,98108.81
2023-04-25T08:44:12.278Z,98124.63
2023-04-25T08:46:43.712Z,98118.87
2023-04-25T08:49:12.069Z,98123.22
2023-04-25T08:51:50.787Z,98135.41
2023-04-25T08:54:35.651Z,98133.44
2023-04-25T08:57:05.142Z,98136.38
2023-04-25T08:59:33.703Z,98138.00
2023-04-25T09:02:01.963Z,98137.25
2023-04-25T09:04:32.652Z,98135.38
2023-04-25T09:07:00.497Z,98137.56
2023-04-25T09:09:28.162Z,98130.69
2023-04-25T09:11:56.503Z,98139.25
2023-04-25T09:14:26.910Z,98138.81
2023-04-25T09:16:57.287Z,98144.41
2023-04-25T09:19:41.094Z,98129.84
2023-04-25T09:22:10.150Z,98143.84
2023-04-25T09:24:44.525Z,98136.03
2023-04-25T09:27:13.904Z,98124.19
2023-04-25T09:29:43.101Z,98121.50
2023-04-25T09:32:17.091Z,98118.78
2023-04-25T09:34:51.918Z,98118.22
2023-04-25T09:37:23.271Z,98122.44
2023-04-25T09:40:01.325Z,98111.44
2023-04-25T09:42:32.904Z,98108.75
2023-04-25T09:45:02.984Z,98122.28
2023-04-25T09:47:33.565Z,98123.72
2023-04-25T09:50:01.404Z,98120.47
2023-04-25T09:52:29.695Z,98114.53
2023-04-25T09:54:57.878Z,98113.59
2023-04-25T09:57:26.288Z,98119.66
2023-04-25T09:59:55.615Z,98121.28
2023-04-25T10:02:28.299Z,98124.50
2023-04-25T10:04:56.981Z,98132.69
2023-04-25T10:07:28.249Z,98125.16
2023-04-25T10:10:04.134Z,98116.69
2023-04-25T10:12:35.207Z,98122.06
2023-04-25T10:15:04.339Z,98117.28
2023-04-25T10:17:32.746Z,98125.91
2023-04-25T10:20:10.833Z,98122.59
2023-04-25T10:22:42.370Z,98111.03
2023-04-25T10:25:10.061Z,98121.53
2023-04-25T10:27:38.282Z,98120.53
2023-04-25T10:30:11.208Z,98110.31
2023-04-25T10:32:39.422Z,98106.72
2023-04-25T10:35:17.698Z,98107.56
2023-04-25T10:38:01.566Z,98108.63
2023-04-25T10:40:29.185Z,98116.69
2023-04-25T10:42:57.158Z,98115.56
2023-04-25T10:45:24.749Z,98123.50
2023-04-25T10:47:52.175Z,98110.25
2023-04-25T10:50:19.932Z,98117.06
2023-04-25T10:52:47.302Z,98117.13
2023-04-25T10:55:14.737Z,98136.31
2023-04-25T10:57:48.476Z,98123.66
2023-04-25T11:00:18.338Z,98120.03
2023-04-25T11:02:53.191Z,98127.31
2023-04-25T11:05:43.907Z,98120.88
2023-04-25T11:08:26.805Z,98123.19
2023-04-25T11:10:54.367Z,98120.94
2023-04-25T11:13:22.059Z,98121.91
2023-04-25T11:16:03.093Z,98119.13
2023-04-25T11:18:42.831Z,98121.84
2023-04-25T11:21:10.963Z,98136.63
2023-04-25T11:23:38.631Z,98126.53
2023-04-25T11:26:06.388Z,98108.06
2023-04-25T11:28:33.779Z,98138.56
2023-04-25T11:31:01.236Z,98136.59
2023-04-25T11:33:28.933Z,98145.81
2023-04-25T11:35:57.443Z,98151.41
2023-04-25T11:38:27.184Z,98148.91
2023-04-25T11:40:55.280Z,98154.88
2023-04-25T11:43:24.060Z,98144.62
2023-04-25T11:45:52.798Z,98149.53
2023-04-25T11:48:24.352Z,98149.56
2023-04-25T11:50:55.019Z,98157.59
2023-04-25T11:53:22.678Z,98156.78
2023-04-25T11:55:51.338Z,98164.34
2023-04-25T11:58:20.589Z,98163.87
2023-04-25T12:00:50.034Z,98167.88
2023-04-25T12:03:19.421Z,98167.66
2023-04-25T12:05:47.714Z,98168.28
2023-04-25T12:08:17.335Z,98158.25
2023-04-25T12:10:46.640Z,98171.25
2023-04-25T12:13:27.684Z,98163.44
2023-04-25T12:15:57.081Z,98162.44
2023-04-25T12:18:26.239Z,98152.34
2023-04-25T12:20:54.368Z,98157.22
2023-04-25T12:23:29.315Z,98156.81
2023-04-25T12:25:57.192Z,98149.16
2023-04-25T12:28:25.846Z,98146.97
2023-04-25T12:30:56.361Z,98139.75
2023-04-25T12:33:24.293Z,98141.87
2023-04-25T12:35:51.937Z,98159.00
2023-04-25T12:38:24.376Z,98146.59
2023-04-25T12:40:52.212Z,98136.81
2023-04-25T12:43:20.236Z,98135.97
2023-04-25T12:45:54.576Z,98135.19
2023-04-25T12:48:22.703Z,98131.91
2023-04-25T12:50:51.621Z,98116.22
2023-04-25T12:53:21.489Z,98138.44
2023-04-25T12:55:49.838Z,98129.84
2023-04-25T12:58:18.644Z,98127.03
2023-04-25T13:00:46.535Z,98120.03
2023-04-25T13:03:14.518Z,98130.44
2023-04-25T13:05:43.109Z,98127.09
2023-04-25T13:08:10.663Z,98118.81
2023-04-25T13:10:42.437Z,98115.34
2023-04-25T13:13:09.808Z,98136.56
2023-04-25T13:15:37.599Z,98121.25
2023-04-25T13:18:08.739Z,98110.63
2023-04-25T13:20:36.172Z,98118.19
2023-04-25T13:23:03.565Z,98128.84
2023-04-25T13:25:31.262Z,98107.72
2023-04-25T13:27:58.648Z,98121.16
2023-04-25T13:30:26.012Z,98112.59
2023-04-25T13:32:55.181Z,98108.72
2023-04-25T13:35:22.641Z,98109.91
2023-04-25T13:37:50.157Z,98113.50
2023-04-25T13:40:18.115Z,98112.03
2023-04-25T13:42:46.403Z,98112.25
2023-04-25T13:45:13.806Z,98099.69
2023-04-25T13:47:41.564Z,98101.38
2023-04-25T13:50:10.518Z,98101.44
2023-04-25T13:52:37.956Z,98107.19
2023-04-25T13:55:07.865Z,98092.78
2023-04-25T13:57:36.232Z,98101.72
2023-04-25T14:00:10.010Z,98104.63
2023-04-25T14:02:37.978Z,98099.53
2023-04-25T14:05:06.050Z,98107.16
2023-04-25T14:07:36.022Z,98107.97
2023-04-25T14:10:05.765Z,98105.19
2023-04-25T14:12:33.426Z,98112.50
2023-04-25T14:15:01.145Z,98106.88
2023-04-25T14:17:28.839Z,98107.28
2023-04-25T14:19:56.305Z,98120.84
2023-04-25T14:22:23.769Z,98112.53
2023-04-25T14:24:51.458Z,98118.59
2023-04-25T14:27:18.811Z,98117.47
2023-04-25T14:29:46.609Z,98108.25
2023-04-25T14:32:14.342Z,98124.66
2023-04-25T14:34:42.047Z,98119.91
2023-04-25T14:37:09.469Z,98114.09
2023-04-25T14:39:37.832Z,98108.47
2023-04-25T14:42:05.504Z,98110.09
2023-04-25T14:44:32.870Z,98108.47
2023-04-25T14:47:01.154Z,98115.47
2023-04-25T14:49:29.330Z,98116.25
2023-04-25T14:51:58.983Z,98113.81
2023-04-25T14:54:26.727Z,98120.16
2023-04-25T14:56:54.104Z,98112.84
2023-04-25T14:59:22.213Z,98120.16
2023-04-25T15:01:50.375Z,98113.78
2023-04-25T15:04:18.652Z,98121.72
2023-04-25T15:06:46.144Z,98120.03
2023-04-25T15:09:14.074Z,98129.62
2023-04-25T15:11:41.499Z,98130.28
2023-04-25T15:14:08.950Z,98125.37
2023-04-25T15:16:36.876Z,98128.59
2023-04-25T15:19:04.902Z,98129.19
2023-04-25T15:21:32.660Z,98119.91
2023-04-25T15:24:00.631Z,98128.53
2023-04-25T15:26:28.345Z,98124.69
2023-04-25T15:28:56.307Z,98121.44
2023-04-25T15:31:24.477Z,98129.50
2023-04-25T15:33:52.063Z,98132.50
2023-04-25T15:36:19.666Z,98131.59
2023-04-25T15:38:47.327Z,98133.50
2023-04-25T15:41:14.748Z,98141.28
2023-04-25T15:43:42.094Z,98154.41
2023-04-25T15:46:09.794Z,98155.50
2023-04-25T15:48:37.796Z,98164.63
2023-04-25T15:51:05.152Z,98158.03
2023-04-25T15:53:32.831Z,98155.87
2023-04-25T15:56:00.219Z,98158.34
2023-04-25T15:58:27.765Z,98148.97
2023-04-25T16:00:56.685Z,98147.44
2023-04-25T16:03:24.545Z,98150.09
2023-04-25T16:05:52.848Z,98143.53
2023-04-25T16:08:20.293Z,98143.91
2023-04-25T16:10:48.422Z,98141.84
2023-04-25T16:13:15.774Z,98144.19
2023-04-25T16:15:43.315Z,98152.78
2023-04-25T16:18:11.067Z,98146.03
2023-04-25T16:20:38.459Z,98149.28
2023-04-25T16:23:05.901Z,98153.88
2023-04-25T16:25:33.525Z,98145.75
2023-04-25T16:28:00.956Z,98141.56
2023-04-25T16:30:28.597Z,98134.44
2023-04-25T16:32:57.686Z,98138.47
2023-04-25T16:35:25.653Z,98141.00
2023-04-25T16:37:53.020Z,98137.62
2023-04-25T16:40:23.356Z,98140.22
2023-04-25T16:42:50.779Z,98147.19
2023-04-25T16:45:20.305Z,98149.00
2023-04-25T16:47:48.116Z,98145.34
2023-04-25T16:50:16.222Z,98141.34
2023-04-25T16:52:44.515Z,98137.78
2023-04-25T16:55:13.264Z,98140.38
2023-04-25T16:57:40.832Z,98146.31
2023-04-25T17:00:13.810Z,98148.19
2023-04-25T17:02:41.999Z,98143.78
2023-04-25T17:05:10.528Z,98154.84
2023-04-25T17:07:38.437Z,98159.91
2023-04-25T17:10:06.692Z,98165.84
2023-04-25T17:12:34.448Z,98165.13
2023-04-25T17:15:02.078Z,98173.56
2023-04-25T17:17:31.843Z,98171.28
2023-04-25T17:19:59.811Z,98172.13
2023-04-25T17:22:27.565Z,98179.28
2023-04-25T17:24:55.457Z,98189.19
2023-04-25T17:27:22.861Z,98176.50
2023-04-25T17:29:54.550Z,98182.66
2023-04-25T17:32:22.574Z,98183.50
2023-04-25T17:34:50.703Z,98189.84
2023-04-25T17:37:33.282Z,98187.16
2023-04-25T17:40:02.211Z,98194.50
2023-04-25T17:42:29.889Z,98201.81
2023-04-25T17:44:57.783Z,98202.06
2023-04-25T17:47:26.704Z,98195.72
2023-04-25T17:49:54.850Z,98208.00
2023-04-25T17:52:22.445Z,98204.03
2023-04-25T17:54:50.789Z,98201.50
2023-04-25T17:57:18.822Z,98206.44
2023-04-25T17:59:46.552Z,98214.31
2023-04-25T18:02:16.397Z,98216.87
2023-04-25T18:04:45.350Z,98220.13
2023-04-25T18:07:13.286Z,98231.78
2023-04-25T18:09:41.135Z,98230.09
2023-04-25T18:12:09.661Z,98234.81
2023-04-25T18:14:40.494Z,98234.97
2023-04-25T18:17:09.358Z,98242.72
2023-04-25T18:19:37.926Z,98241.56
2023-04-25T18:22:06.457Z,98248.06
2023-04-25T18:24:34.357Z,98250.16
2023-04-25T18:27:08.964Z,98258.25
2023-04-25T18:29:43.623Z,98262.84
2023-04-25T18:32:34.403Z,98256.31
2023-04-25T18:35:02.616Z,98259.94
2023-04-25T18:37:31.223Z,98267.03
2023-04-25T18:39:59.408Z,98262.94
2023-04-25T18:42:27.451Z,98272.53
2023-04-25T18:44:57.148Z,98267.31
2023-04-25T18:47:25.353Z,98265.91
2023-04-25T18:49:53.377Z,98271.13
2023-04-25T18:52:21.480Z,98271.94
2023-04-25T18:54:49.518Z,98282.41
2023-04-25T18:57:19.897Z,98272.78
2023-04-25T18:59:49.202Z,98287.63
2023-04-25T19:02:18.380Z,98286.16
2023-04-25T19:04:46.863Z,98283.06
2023-04-25T19:07:20.966Z,98283.31
2023-04-25T19:09:50.296Z,98276.34
2023-04-25T19:12:18.642Z,98286.81
2023-04-25T19:14:47.501Z,98287.00
2023-04-25T19:17:18.575Z,98292.25
2023-04-25T19:19:47.461Z,98294.00
2023-04-25T19:22:17.561Z,98291.19
2023-04-25T19:25:06.703Z,98289.62
2023-04-25T19:27:39.573Z,98290.47
2023-04-25T19:30:09.551Z,98281.97
2023-04-25T19:32:39.200Z,98281.91
2023-04-25T19:35:11.121Z,98278.63
2023-04-25T19:37:41.570Z,98284.63
2023-04-25T19:40:10.069Z,98287.13
2023-04-25T19:42:38.454Z,98288.75
2023-04-25T19:45:08.181Z,98292.06
2023-04-25T19:47:39.890Z,98294.72
2023-04-25T19:50:10.053Z,98292.75
2023-04-25T19:52:39.148Z,98290.16
2023-04-25T19:55:08.355Z,98304.41
2023-04-25T19:57:38.085Z,98297.22
2023-04-25T20:00:11.677Z,98298.28
2023-04-25T20:02:40.447Z,98300.28
2023-04-25T20:05:09.240Z,98287.19
2023-04-25T20:07:37.366Z,98278.56
2023-04-25T20:10:06.963Z,98277.91
2023-04-25T20:12:37.759Z,98284.72
2023-04-25T20:15:08.443Z,98288.22
2023-04-25T20:17:37.464Z,98293.50
2023-04-25T20:20:07.038Z,98293.34
2023-04-25T20:22:39.096Z,98295.22
2023-04-25T20:25:08.809Z,98292.53
2023-04-25T20:27:38.396Z,98303.72
2023-04-25T20:30:08.758Z,98303.81
2023-04-25T20:32:37.037Z,98305.50
2023-04-25T20:35:10.532Z,98319.41
2023-04-25T20:37:38.612Z,98325.44
2023-04-25T20:40:09.571Z,98319.38
2023-04-25T20:42:37.045Z,98320.22
2023-04-25T20:45:12.707Z,98330.63
2023-04-25T20:47:44.529Z,98333.28
2023-04-25T20:50:12.414Z,98327.19
2023-04-25T20:52:39.884Z,98327.22
2023-04-25T20:55:08.169Z,98337.59
2023-04-25T20:57:38.219Z,98328.91
2023-04-25T21:00:27.315Z,98340.22
2023-04-25T21:02:56.872Z,98351.44
2023-04-25T21:05:24.716Z,98354.91
2023-04-25T21:07:52.891Z,98369.56
2023-04-25T21:10:21.290Z,98356.63
2023-04-25T21:12:49.484Z,98357.38
2023-04-25T21:15:18.137Z,98359.19
2023-04-25T21:17:49.853Z,98359.19
2023-04-25T21:20:22.025Z,98359.19
2023-04-25T21:22:53.757Z,98365.25
2023-04-25T21:25:29.292Z,98366.97
2023-04-25T21:27:59.762Z,98366.91
2023-04-25T21:30:27.307Z,98361.78
2023-04-25T21:32:54.903Z,98360.06
2023-04-25T21:35:22.927Z,98369.56
2023-04-25T21:37:50.736Z,98383.38
2023-04-25T21:40:18.875Z,98386.78
2023-04-25T21:42:50.128Z,98378.19
2023-04-25T21:45:18.418Z,98388.56
2023-04-25T21:47:47.839Z,98393.75
2023-04-25T21:50:15.642Z,98398.06
2023-04-25T21:52:43.031Z,98399.81
2023-04-25T21:55:11.555Z,98405.84
2023-04-25T21:57:39.536Z,98412.75
2023-04-25T22:00:20.183Z,98395.41
2023-04-25T22:02:49.545Z,98397.19
2023-04-25T22:05:22.627Z,98393.69
2023-04-25T22:07:51.319Z,98404.06
2023-04-25T22:10:20.392Z,98411.03
2023-04-25T22:12:51.138Z,98411.91
2023-04-25T22:15:21.731Z,98424.00
2023-04-25T22:17:52.236Z,98424.00
2023-04-25T22:20:26.093Z,98426.59
2023-04-25T22:22:56.406Z,98420.50
2023-04-25T22:25:26.588Z,98432.63
2023-04-25T22:27:55.569Z,98425.72
2023-04-25T22:30:32.596Z,98432.63
2023-04-25T22:33:00.054Z,98429.19
2023-04-25T22:35:27.752Z,98430.03
2023-04-25T22:37:55.867Z,98428.12
2023-04-25T22:40:23.287Z,98420.34
2023-04-25T22:42:50.690Z,98435.09
2023-04-25T22:45:18.868Z,98442.84
2023-04-25T22:47:46.453Z,98434.94
2023-04-25T22:50:16.687Z,98441.91
2023-04-25T22:52:44.812Z,98439.44
2023-04-25T22:55:13.092Z,98431.44
2023-04-25T22:57:40.715Z,98431.63
2023-04-25T23:00:19.637Z,98436.06
2023-04-25T23:02:48.016Z,98441.00
2023-04-25T23:05:15.785Z,98445.28
2023-04-25T23:07:45.013Z,98456.28
2023-04-25T23:10:14.056Z,98449.50
2023-04-25T23:12:41.931Z,98448.75
2023-04-25T23:15:10.032Z,98449.44
2023-04-25T23:17:38.099Z,98452.03
2023-04-25T23:20:07.857Z,98453.06
2023-04-25T23:22:36.144Z,98454.81
2023-04-25T23:25:03.809Z,98445.38
2023-04-25T23:27:31.728Z,98452.38
2023-04-25T23:29:59.093Z,98453.94
2023-04-25T23:32:26.932Z,98459.16
2023-04-25T23:34:54.564Z,98455.84
2023-04-25T23:37:21.961Z,98460.25
2023-04-25T23:39:52.475Z,98462.66
2023-04-25T23:42:20.339Z,98457.53
2023-04-25T23:44:47.753Z,98461.81
2023-04-25T23:47:17.683Z,98457.38
2023-04-25T23:49:46.226Z,98465.03
2023-04-25T23:52:13.656Z,98460.84
2023-04-25T23:54:41.178Z,98469.47
2023-04-25T23:57:08.813Z,98465.22
2023-04-25T23:59:36.220Z,98459.97
